createdAt,value
2019-05-02T00:01:46.036Z,65.14
2019-05-02T00:04:51.070Z,67.06
2019-05-02T00:07:58.547Z,68.01
2019-05-02T00:11:02.796Z,70.08
2019-05-02T00:14:06.915Z,73.52
2019-05-02T00:17:11.625Z,73.84
2019-05-02T00:20:21.278Z,74.91
2019-05-02T00:23:27.908Z,75.38
2019-05-02T00:26:29.412Z,73.89
2019-05-02T00:29:33.355Z,72.32
2019-05-02T00:32:37.204Z,73.47
2019-05-02T00:35:46.004Z,71.67
2019-05-02T00:38:47.070Z,72.55
2019-05-02T00:41:50.952Z,73.69
2019-05-02T00:44:54.891Z,71.97
2019-05-02T00:48:07.510Z,72.13
2019-05-02T00:51:11.332Z,72.23
2019-05-02T00:54:19.255Z,72.61
2019-05-02T00:57:21.771Z,72.18
2019-05-02T01:00:25.872Z,72.77
2019-05-02T01:03:32.109Z,72.29
2019-05-02T01:06:36.225Z,72.19
2019-05-02T01:09:45.014Z,72.73
2019-05-02T01:12:46.265Z,72.96
2019-05-02T01:15:50.025Z,72.75
2019-05-02T01:18:53.946Z,73.84
2019-05-02T01:21:58.078Z,75.97
2019-05-02T01:25:02.031Z,77.22
2019-05-02T01:28:17.521Z,78.90
2019-05-02T01:31:30.282Z,79.83
2019-05-02T01:34:43.491Z,79.90
2019-05-02T01:38:15.769Z,79.40
2019-05-02T01:41:24.033Z,80.39
2019-05-02T01:44:25.734Z,80.74
2019-05-02T01:47:34.197Z,79.60
2019-05-02T01:50:35.274Z,78.72
2019-05-02T01:53:39.419Z,78.92
2019-05-02T01:56:43.383Z,77.77
2019-05-02T01:59:47.831Z,78.48
2019-05-02T02:02:52.002Z,78.15
2019-05-02T02:05:56.155Z,78.36
2019-05-02T02:09:03.280Z,78.10
2019-05-02T02:12:09.963Z,75.88
2019-05-02T02:15:11.741Z,77.68
2019-05-02T02:18:16.738Z,78.03
2019-05-02T02:21:36.734Z,77.81
2019-05-02T02:24:55.892Z,77.75
2019-05-02T02:27:59.658Z,77.95
2019-05-02T02:31:04.791Z,78.41
2019-05-02T02:34:09.792Z,78.80
2019-05-02T02:37:15.168Z,78.38
2019-05-02T02:40:19.411Z,76.36
2019-05-02T02:43:34.286Z,76.68
2019-05-02T02:46:37.744Z,77.68
2019-05-02T02:49:37.818Z,78.84
2019-05-02T02:52:44.754Z,78.46
2019-05-02T02:55:47.151Z,80.26
2019-05-02T02:58:51.038Z,79.08
2019-05-02T03:01:55.233Z,80.66
2019-05-02T03:04:59.235Z,79.44
2019-05-02T03:08:05.399Z,81.47
2019-05-02T03:11:10.937Z,80.31
2019-05-02T03:14:22.924Z,80.32
2019-05-02T03:17:28.707Z,80.43
2019-05-02T03:20:40.095Z,80.00
2019-05-02T03:23:38.500Z,80.74
2019-05-02T03:26:48.770Z,79.05
2019-05-02T03:29:49.335Z,80.03
2019-05-02T03:33:05.978Z,79.03
2019-05-02T03:35:59.181Z,78.36
2019-05-02T03:39:13.346Z,80.25
2019-05-02T03:42:09.363Z,80.75
2019-05-02T03:45:13.568Z,80.73
2019-05-02T03:48:24.954Z,80.57
2019-05-02T03:51:25.124Z,80.60
2019-05-02T03:54:29.613Z,79.61
2019-05-02T03:57:36.207Z,79.42
2019-05-02T04:00:39.317Z,79.05
2019-05-02T04:03:43.851Z,79.03
2019-05-02T04:06:48.079Z,79.53
2019-05-02T04:09:52.109Z,79.10
2019-05-02T04:12:58.351Z,79.01
2019-05-02T04:16:14.322Z,79.42
2019-05-02T04:19:08.849Z,79.60
2019-05-02T04:22:13.797Z,80.55
2019-05-02T04:25:18.834Z,80.80
2019-05-02T04:28:22.875Z,79.53
2019-05-02T04:31:31.442Z,79.80
2019-05-02T04:34:32.706Z,80.59
2019-05-02T04:37:40.913Z,80.33
2019-05-02T04:40:46.455Z,78.40
2019-05-02T04:43:55.916Z,78.07
2019-05-02T04:47:02.581Z,79.63
2019-05-02T04:50:07.714Z,80.04
2019-05-02T04:53:08.606Z,78.82
2019-05-02T04:56:13.315Z,79.94
2019-05-02T04:59:22.682Z,78.46
2019-05-02T05:02:34.668Z,79.63
2019-05-02T05:05:31.263Z,79.22
2019-05-02T05:08:34.954Z,80.08
2019-05-02T05:11:38.791Z,79.73
2019-05-02T05:14:43.478Z,79.94
2019-05-02T05:17:47.930Z,80.16
2019-05-02T05:20:54.282Z,79.80
2019-05-02T05:24:18.196Z,79.38
2019-05-02T05:27:23.111Z,80.06
2019-05-02T05:30:27.796Z,79.20
2019-05-02T05:33:32.003Z,79.06
2019-05-02T05:36:37.494Z,79.15
2019-05-02T05:39:43.036Z,78.91
2019-05-02T05:42:48.104Z,79.75
2019-05-02T05:45:56.410Z,78.71
2019-05-02T05:48:58.482Z,78.29
2019-05-02T05:52:03.823Z,78.72
2019-05-02T05:55:12.767Z,78.49
2019-05-02T05:58:15.760Z,77.64
2019-05-02T06:01:20.551Z,77.93
2019-05-02T06:04:30.257Z,77.47
2019-05-02T06:07:33.616Z,77.90
2019-05-02T06:10:39.045Z,77.95
2019-05-02T06:13:42.962Z,77.69
2019-05-02T06:16:51.779Z,77.05
2019-05-02T06:19:55.403Z,77.25
2019-05-02T06:23:00.006Z,76.17
2019-05-02T06:26:07.829Z,76.88
2019-05-02T06:29:13.035Z,77.27
2019-05-02T06:32:19.374Z,75.91
2019-05-02T06:35:22.480Z,75.76
2019-05-02T06:38:26.517Z,75.85
2019-05-02T06:41:30.353Z,76.28
2019-05-02T06:44:34.741Z,76.36
2019-05-02T06:47:41.657Z,77.48
2019-05-02T06:50:44.883Z,76.85
2019-05-02T06:53:49.076Z,76.47
2019-05-02T06:56:52.926Z,77.70
2019-05-02T06:59:56.825Z,77.72
2019-05-02T07:03:05.059Z,77.33
2019-05-02T07:06:07.815Z,75.09
2019-05-02T07:09:12.101Z,75.73
2019-05-02T07:12:16.779Z,74.61
2019-05-02T07:15:42.601Z,74.74
2019-05-02T07:18:50.324Z,74.71
2019-05-02T07:21:58.407Z,74.52
2019-05-02T07:25:02.083Z,73.86
2019-05-02T07:28:09.387Z,73.86
2019-05-02T07:31:13.753Z,73.54
2019-05-02T07:34:17.581Z,71.29
2019-05-02T07:37:21.795Z,72.05
2019-05-02T07:40:25.871Z,71.29
2019-05-02T07:43:29.669Z,70.35
2019-05-02T07:46:33.672Z,71.23
2019-05-02T07:49:37.712Z,70.09
2019-05-02T07:52:42.080Z,70.31
2019-05-02T07:55:48.929Z,69.33
2019-05-02T07:58:51.710Z,69.79
2019-05-02T08:01:55.745Z,69.69
2019-05-02T08:04:59.621Z,71.05
2019-05-02T08:08:03.956Z,71.17
2019-05-02T08:11:07.920Z,70.45
2019-05-02T08:14:11.716Z,69.43
2019-05-02T08:17:16.970Z,68.01
2019-05-02T08:20:21.382Z,67.28
2019-05-02T08:23:26.136Z,67.23
2019-05-02T08:26:53.437Z,67.75
2019-05-02T08:29:54.937Z,67.40
2019-05-02T08:32:58.823Z,65.70
2019-05-02T08:36:02.967Z,65.28
2019-05-02T08:39:07.661Z,64.59
2019-05-02T08:42:12.277Z,63.93
2019-05-02T08:45:16.531Z,65.03
2019-05-02T08:48:22.670Z,66.10
2019-05-02T08:51:27.029Z,65.39
2019-05-02T08:54:32.784Z,64.86
2019-05-02T08:57:37.015Z,65.44
2019-05-02T09:00:41.395Z,63.91
2019-05-02T09:04:00.522Z,61.79
2019-05-02T09:06:53.260Z,62.03
2019-05-02T09:10:00.293Z,61.25
2019-05-02T09:13:02.734Z,59.49
2019-05-02T09:16:06.676Z,61.41
2019-05-02T09:19:13.466Z,59.17
2019-05-02T09:22:17.035Z,60.95
2019-05-02T09:25:22.064Z,61.68
2019-05-02T09:28:25.905Z,60.53
2019-05-02T09:31:31.850Z,59.20
2019-05-02T09:34:35.856Z,59.20
2019-05-02T09:37:41.911Z,58.81
2019-05-02T09:40:47.235Z,59.01
2019-05-02T09:43:52.395Z,57.01
2019-05-02T09:46:57.167Z,57.07
2019-05-02T09:50:12.721Z,57.07
2019-05-02T09:53:20.758Z,54.40
2019-05-02T09:56:22.062Z,55.61
2019-05-02T09:59:33.490Z,54.61
2019-05-02T10:02:37.449Z,54.94
2019-05-02T10:05:43.084Z,54.64
2019-05-02T10:08:47.255Z,54.67
2019-05-02T10:11:52.575Z,54.82
2019-05-02T10:14:56.783Z,52.91
2019-05-02T10:18:08.836Z,54.28
2019-05-02T10:21:07.945Z,54.71
2019-05-02T10:24:12.721Z,54.30
2019-05-02T10:27:16.494Z,53.52
2019-05-02T10:30:22.535Z,54.07
2019-05-02T10:33:27.888Z,53.65
2019-05-02T10:36:33.137Z,53.71
2019-05-02T10:39:37.952Z,52.97
2019-05-02T10:42:42.619Z,53.65
2019-05-02T10:45:54.872Z,53.97
2019-05-02T10:49:01.988Z,52.63
2019-05-02T10:52:06.126Z,53.40
2019-05-02T10:55:10.361Z,51.20
2019-05-02T10:58:14.597Z,50.91
2019-05-02T11:01:21.919Z,50.87
2019-05-02T11:04:29.160Z,51.66
2019-05-02T11:07:32.657Z,51.12
2019-05-02T11:10:36.683Z,51.70
2019-05-02T11:14:01.128Z,50.15
2019-05-02T11:17:17.688Z,49.85
2019-05-02T11:20:19.683Z,50.00
2019-05-02T11:23:23.627Z,47.77
2019-05-02T11:26:27.748Z,49.14
2019-05-02T11:29:32.243Z,48.90
2019-05-02T11:32:36.607Z,48.42
2019-05-02T11:35:48.777Z,47.96
2019-05-02T11:38:53.094Z,48.02
2019-05-02T11:41:52.816Z,48.70
2019-05-02T11:44:56.617Z,49.36
2019-05-02T11:48:08.593Z,47.60
2019-05-02T11:51:07.375Z,47.26
2019-05-02T11:54:13.024Z,46.09
2019-05-02T11:57:22.127Z,46.46
2019-05-02T12:00:22.962Z,47.10
2019-05-02T12:03:35.779Z,44.63
2019-05-02T12:06:38.540Z,45.07
2019-05-02T12:09:45.629Z,45.81
2019-05-02T12:12:48.118Z,46.49
2019-05-02T12:15:52.141Z,45.88
2019-05-02T12:19:08.677Z,45.52
2019-05-02T12:22:02.759Z,45.27
2019-05-02T12:25:06.948Z,44.92
2019-05-02T12:28:12.041Z,45.07
2019-05-02T12:31:27.872Z,45.11
2019-05-02T12:34:32.631Z,45.56
2019-05-02T12:37:36.441Z,45.57
2019-05-02T12:40:42.049Z,45.74
2019-05-02T12:43:46.397Z,44.46
2019-05-02T12:46:51.758Z,43.96
2019-05-02T12:49:55.716Z,44.19
2019-05-02T12:52:59.540Z,42.94
2019-05-02T12:56:03.725Z,43.28
2019-05-02T12:59:07.631Z,41.89
2019-05-02T13:02:17.810Z,42.23
2019-05-02T13:05:22.255Z,40.72
2019-05-02T13:08:26.182Z,40.45
2019-05-02T13:11:45.715Z,41.62
2019-05-02T13:14:47.441Z,41.72
2019-05-02T13:17:52.093Z,40.60
2019-05-02T13:20:58.879Z,38.09
2019-05-02T13:24:34.064Z,36.98
2019-05-02T13:27:47.497Z,36.67
2019-05-02T13:30:58.153Z,37.80
2019-05-02T13:34:17.064Z,37.59
2019-05-02T13:37:22.553Z,35.63
2019-05-02T13:40:42.262Z,34.01
2019-05-02T13:43:47.765Z,31.62
2019-05-02T13:46:53.593Z,30.99
2019-05-02T13:50:00.898Z,30.75
2019-05-02T13:53:03.991Z,30.71
2019-05-02T13:56:46.057Z,30.64
2019-05-02T13:59:50.063Z,31.81
2019-05-02T14:02:54.100Z,31.46
2019-05-02T14:05:57.985Z,32.03
2019-05-02T14:09:20.599Z,28.03
2019-05-02T14:12:54.036Z,28.02
2019-05-02T14:15:57.979Z,27.89
2019-05-02T14:19:05.522Z,27.37
2019-05-02T14:22:09.409Z,29.10
2019-05-02T14:25:13.629Z,28.55
2019-05-02T14:28:17.486Z,28.11
2019-05-02T14:31:21.774Z,28.44
2019-05-02T14:34:44.591Z,27.66
2019-05-02T14:38:08.091Z,28.28
2019-05-02T14:41:13.669Z,27.74
2019-05-02T14:44:18.105Z,29.32
2019-05-02T14:47:23.420Z,29.44
2019-05-02T14:50:27.249Z,31.42
2019-05-02T14:53:32.031Z,30.90
2019-05-02T14:57:02.168Z,30.88
2019-05-02T15:00:08.247Z,31.06
2019-05-02T15:03:12.887Z,33.24
2019-05-02T15:06:17.222Z,32.75
2019-05-02T15:09:26.351Z,32.91
2019-05-02T15:12:27.423Z,34.04
2019-05-02T15:15:33.573Z,35.26
2019-05-02T15:18:37.369Z,34.52
2019-05-02T15:21:46.901Z,35.62
2019-05-02T15:24:49.894Z,35.23
2019-05-02T15:27:58.265Z,34.82
2019-05-02T15:31:06.484Z,35.21
2019-05-02T15:34:18.166Z,35.15
2019-05-02T15:37:25.689Z,35.40
2019-05-02T15:43:33.177Z,36.66
2019-05-02T15:46:40.120Z,36.82
2019-05-02T15:49:46.657Z,36.30
2019-05-02T15:52:57.183Z,36.68
2019-05-02T15:56:02.112Z,36.55
2019-05-02T15:59:06.507Z,36.25
2019-05-02T16:02:17.605Z,36.52
2019-05-02T16:05:22.180Z,36.93
2019-05-02T16:08:27.843Z,36.44
2019-05-02T16:11:32.232Z,37.04
2019-05-02T16:14:36.323Z,46.85
2019-05-02T16:17:42.210Z,50.93
2019-05-02T16:21:04.893Z,54.46
2019-05-02T16:24:19.465Z,57.12
2019-05-02T16:27:44.383Z,61.73
2019-05-02T16:30:50.079Z,61.73
2019-05-02T16:33:57.387Z,66.17
2019-05-02T16:37:13.621Z,71.46
2019-05-02T16:40:23.872Z,81.09
2019-05-02T16:43:26.296Z,83.73
2019-05-02T16:46:32.235Z,87.72
2019-05-02T16:49:36.515Z,90.27
2019-05-02T16:52:43.817Z,86.66
2019-05-02T16:55:46.912Z,88.34
2019-05-02T16:58:52.203Z,90.63
2019-05-02T17:01:59.595Z,88.55
2019-05-02T17:05:08.312Z,89.11
2019-05-02T17:08:33.225Z,91.15
2019-05-02T17:11:41.879Z,93.39
2019-05-02T17:15:04.570Z,94.95
2019-05-02T17:18:14.646Z,94.44
2019-05-02T17:21:15.088Z,95.44
2019-05-02T17:24:22.652Z,94.18
2019-05-02T17:27:24.887Z,94.04
2019-05-02T17:30:33.722Z,93.84
2019-05-02T17:33:34.504Z,92.52
2019-05-02T17:36:38.417Z,93.32
2019-05-02T17:39:46.088Z,93.35
2019-05-02T17:42:48.995Z,93.35
2019-05-02T17:45:53.050Z,90.50
2019-05-02T17:48:57.231Z,92.23
2019-05-02T17:52:24.445Z,92.23
2019-05-02T17:55:24.517Z,91.55
2019-05-02T17:58:28.644Z,91.10
2019-05-02T18:01:36.479Z,91.45
2019-05-02T18:04:41.939Z,92.04
2019-05-02T18:07:45.942Z,91.67
2019-05-02T18:10:50.689Z,92.38
2019-05-02T18:13:55.773Z,91.50
2019-05-02T18:16:59.677Z,92.45
2019-05-02T18:20:06.785Z,92.17
2019-05-02T18:23:12.224Z,92.40
2019-05-02T18:26:16.198Z,91.21
2019-05-02T18:29:20.067Z,91.25
2019-05-02T18:32:26.111Z,92.18
2019-05-02T18:35:30.024Z,92.01
2019-05-02T18:38:34.086Z,93.33
2019-05-02T18:41:42.732Z,93.05
2019-05-02T18:44:48.211Z,92.58
2019-05-02T18:47:55.399Z,92.31
2019-05-02T18:50:57.234Z,91.24
2019-05-02T18:54:04.583Z,90.85
2019-05-02T18:57:07.292Z,90.82
2019-05-02T19:00:12.175Z,91.15
2019-05-02T19:03:17.277Z,92.20
2019-05-02T19:06:22.047Z,89.70
2019-05-02T19:09:30.110Z,89.63
2019-05-02T19:12:32.822Z,88.41
2019-05-02T19:15:39.638Z,89.51
2019-05-02T19:18:42.934Z,89.98
2019-05-02T19:21:47.038Z,89.13
2019-05-02T19:24:52.352Z,89.26
2019-05-02T19:28:08.352Z,89.71
2019-05-02T19:31:12.664Z,91.00
2019-05-02T19:34:24.725Z,89.74
2019-05-02T19:37:22.559Z,84.67
2019-05-02T19:40:28.326Z,81.86
2019-05-02T19:43:34.840Z,83.81
2019-05-02T19:46:39.045Z,83.74
2019-05-02T19:49:47.259Z,80.32
2019-05-02T19:53:00.826Z,78.77
2019-05-02T19:55:57.168Z,80.17
2019-05-02T19:59:02.715Z,81.32
2019-05-02T20:02:06.760Z,83.02
2019-05-02T20:05:11.827Z,84.44
2019-05-02T20:08:21.457Z,85.93
2019-05-02T20:11:22.186Z,88.59
2019-05-02T20:14:26.080Z,89.52
2019-05-02T20:17:29.989Z,89.35
2019-05-02T20:20:43.763Z,88.45
2019-05-02T20:23:48.416Z,89.13
2019-05-02T20:26:56.114Z,90.61
2019-05-02T20:29:58.112Z,91.97
2019-05-02T20:33:05.037Z,92.70
2019-05-02T20:36:07.932Z,92.46
2019-05-02T20:39:12.236Z,93.76
2019-05-02T20:42:16.401Z,94.06
2019-05-02T20:45:20.326Z,93.73
2019-05-02T20:48:24.217Z,94.62
2019-05-02T20:51:29.035Z,93.84
2019-05-02T20:54:33.261Z,94.63
2019-05-02T20:57:37.527Z,95.42
2019-05-02T21:00:42.693Z,93.86
2019-05-02T21:03:46.740Z,93.82
2019-05-02T21:06:57.039Z,95.22
2019-05-02T21:10:06.155Z,96.89
2019-05-02T21:13:10.051Z,95.82
2019-05-02T21:16:13.934Z,95.66
2019-05-02T21:19:17.810Z,96.55
2019-05-02T21:22:25.669Z,95.20
2019-05-02T21:25:29.901Z,98.08
2019-05-02T21:28:33.773Z,98.82
2019-05-02T21:31:37.925Z,99.19
2019-05-02T21:34:42.509Z,99.71
2019-05-02T21:37:46.921Z,100.00
2019-05-02T21:40:52.546Z,99.55
2019-05-02T21:43:57.023Z,99.74
2019-05-02T21:47:02.880Z,100.00
2019-05-02T21:50:25.230Z,99.69
2019-05-02T21:53:56.054Z,98.47
2019-05-02T21:56:58.667Z,99.15
2019-05-02T22:00:02.739Z,99.84
2019-05-02T22:03:06.803Z,100.00
2019-05-02T22:06:12.236Z,100.00
2019-05-02T22:09:16.272Z,100.00
2019-05-02T22:12:22.414Z,99.95
2019-05-02T22:15:26.006Z,100.00
2019-05-02T22:18:32.168Z,100.00
2019-05-02T22:21:36.169Z,100.00
2019-05-02T22:24:42.000Z,100.00
2019-05-02T22:27:45.684Z,100.00
2019-05-02T22:30:49.544Z,100.00
2019-05-02T22:33:53.494Z,100.00
2019-05-02T22:36:57.660Z,100.00
2019-05-02T22:40:05.576Z,100.00
2019-05-02T22:43:09.512Z,100.00
2019-05-02T22:46:15.924Z,100.00
2019-05-02T22:49:19.830Z,100.00
2019-05-02T22:52:24.000Z,100.00
2019-05-02T22:55:27.837Z,100.00
2019-05-02T22:58:32.665Z,100.00
2019-05-02T23:01:37.005Z,100.00
2019-05-02T23:04:41.778Z,100.00
2019-05-02T23:07:45.841Z,100.00
2019-05-02T23:10:51.814Z,100.00
2019-05-02T23:13:56.479Z,100.00
2019-05-02T23:17:02.056Z,100.00
2019-05-02T23:20:06.548Z,100.00
2019-05-02T23:23:12.417Z,100.00
2019-05-02T23:26:37.286Z,100.00
2019-05-02T23:29:42.516Z,100.00
2019-05-02T23:32:46.735Z,100.00
2019-05-02T23:35:52.138Z,100.00
2019-05-02T23:38:56.472Z,100.00
2019-05-02T23:42:01.995Z,100.00
2019-05-02T23:45:06.448Z,100.00
2019-05-02T23:48:10.436Z,100.00
2019-05-02T23:51:14.342Z,100.00
2019-05-02T23:54:18.598Z,100.00
2019-05-02T23:57:23.055Z,100.00
